sensor_id;sensor_type;location;lat;lon;timestamp;P1;durP1;ratioP1;P2;durP2;ratioP2
8474;SDS011;4274;52.012;8.448;2023-07-22T00:00:45;61.70;;;13.90;;
8474;SDS011;4274;52.012;8.448;2023-07-22T00:03:11;69.10;;;16.23;;
8474;SDS011;4274;52.012;8.448;2023-07-22T00:05:36;64.83;;;15.53;;
8474;SDS011;4274;52.012;8.448;2023-07-22T00:08:02;59.70;;;14.57;;
8474;SDS011;4274;52.012;8.448;2023-07-22T00:10:28;69.47;;;15.90;;
8474;SDS011;4274;52.012;8.448;2023-07-22T00:12:54;59.57;;;15.67;;
8474;SDS011;4274;52.012;8.448;2023-07-22T00:15:19;59.27;;;13.60;;
8474;SDS011;4274;52.012;8.448;2023-07-22T00:17:47;63.67;;;14.00;;
8474;SDS011;4274;52.012;8.448;2023-07-22T00:20:13;65.87;;;17.00;;
8474;SDS011;4274;52.012;8.448;2023-07-22T00:22:39;78.37;;;15.43;;
8474;SDS011;4274;52.012;8.448;2023-07-22T00:25:06;64.30;;;15.20;;
8474;SDS011;4274;52.012;8.448;2023-07-22T00:27:36;61.30;;;13.73;;
8474;SDS011;4274;52.012;8.448;2023-07-22T00:30:03;66.57;;;15.80;;
8474;SDS011;4274;52.012;8.448;2023-07-22T00:32:31;64.90;;;15.83;;
8474;SDS011;4274;52.012;8.448;2023-07-22T00:34:56;64.07;;;15.47;;
8474;SDS011;4274;52.012;8.448;2023-07-22T00:37:22;62.67;;;15.27;;
8474;SDS011;4274;52.012;8.448;2023-07-22T00:39:47;61.07;;;14.13;;
8474;SDS011;4274;52.012;8.448;2023-07-22T00:42:13;61.30;;;15.50;;
8474;SDS011;4274;52.012;8.448;2023-07-22T00:44:38;61.83;;;14.30;;
8474;SDS011;4274;52.012;8.448;2023-07-22T00:47:04;63.27;;;15.00;;
8474;SDS011;4274;52.012;8.448;2023-07-22T00:49:29;63.67;;;15.00;;
8474;SDS011;4274;52.012;8.448;2023-07-22T00:51:56;60.50;;;14.83;;
8474;SDS011;4274;52.012;8.448;2023-07-22T00:54:26;71.90;;;15.37;;
8474;SDS011;4274;52.012;8.448;2023-07-22T00:56:52;59.97;;;13.43;;
8474;SDS011;4274;52.012;8.448;2023-07-22T00:59:19;70.60;;;14.53;;
8474;SDS011;4274;52.012;8.448;2023-07-22T01:01:45;64.20;;;15.03;;
8474;SDS011;4274;52.012;8.448;2023-07-22T01:04:13;58.20;;;13.03;;
8474;SDS011;4274;52.012;8.448;2023-07-22T01:06:40;62.70;;;12.73;;
8474;SDS011;4274;52.012;8.448;2023-07-22T01:09:07;61.80;;;13.00;;
8474;SDS011;4274;52.012;8.448;2023-07-22T01:11:34;69.93;;;13.90;;
8474;SDS011;4274;52.012;8.448;2023-07-22T01:13:59;63.17;;;13.80;;
8474;SDS011;4274;52.012;8.448;2023-07-22T01:16:26;64.10;;;15.37;;
8474;SDS011;4274;52.012;8.448;2023-07-22T01:18:52;58.73;;;13.00;;
8474;SDS011;4274;52.012;8.448;2023-07-22T01:21:19;58.20;;;13.40;;
8474;SDS011;4274;52.012;8.448;2023-07-22T01:23:47;64.37;;;15.70;;
8474;SDS011;4274;52.012;8.448;2023-07-22T01:26:13;59.57;;;13.00;;
8474;SDS011;4274;52.012;8.448;2023-07-22T01:28:39;61.53;;;13.20;;
8474;SDS011;4274;52.012;8.448;2023-07-22T01:31:05;70.77;;;13.90;;
8474;SDS011;4274;52.012;8.448;2023-07-22T01:33:31;59.40;;;11.87;;
8474;SDS011;4274;52.012;8.448;2023-07-22T01:35:57;62.77;;;13.00;;
8474;SDS011;4274;52.012;8.448;2023-07-22T01:38:22;60.10;;;12.73;;
8474;SDS011;4274;52.012;8.448;2023-07-22T01:40:48;61.70;;;13.13;;
8474;SDS011;4274;52.012;8.448;2023-07-22T01:43:13;63.53;;;13.40;;
8474;SDS011;4274;52.012;8.448;2023-07-22T01:45:39;65.27;;;14.10;;
8474;SDS011;4274;52.012;8.448;2023-07-22T01:48:04;67.13;;;12.77;;
8474;SDS011;4274;52.012;8.448;2023-07-22T01:50:31;65.10;;;14.00;;
8474;SDS011;4274;52.012;8.448;2023-07-22T01:52:57;64.93;;;14.00;;
8474;SDS011;4274;52.012;8.448;2023-07-22T01:55:22;64.23;;;13.23;;
8474;SDS011;4274;52.012;8.448;2023-07-22T01:57:48;59.67;;;12.90;;
8474;SDS011;4274;52.012;8.448;2023-07-22T02:00:14;63.00;;;14.30;;
8474;SDS011;4274;52.012;8.448;2023-07-22T02:02:40;64.57;;;13.87;;
8474;SDS011;4274;52.012;8.448;2023-07-22T02:05:08;66.40;;;14.80;;
8474;SDS011;4274;52.012;8.448;2023-07-22T02:07:37;65.27;;;15.27;;
8474;SDS011;4274;52.012;8.448;2023-07-22T02:10:03;61.00;;;13.90;;
8474;SDS011;4274;52.012;8.448;2023-07-22T02:12:30;60.20;;;12.60;;
8474;SDS011;4274;52.012;8.448;2023-07-22T02:14:56;75.03;;;15.50;;
8474;SDS011;4274;52.012;8.448;2023-07-22T02:17:21;63.17;;;14.40;;
8474;SDS011;4274;52.012;8.448;2023-07-22T02:19:48;64.33;;;14.87;;
8474;SDS011;4274;52.012;8.448;2023-07-22T02:22:14;63.57;;;13.73;;
8474;SDS011;4274;52.012;8.448;2023-07-22T02:24:39;59.87;;;13.73;;
8474;SDS011;4274;52.012;8.448;2023-07-22T02:27:05;65.83;;;14.57;;
8474;SDS011;4274;52.012;8.448;2023-07-22T02:29:33;59.60;;;12.77;;
8474;SDS011;4274;52.012;8.448;2023-07-22T02:31:59;79.23;;;14.70;;
8474;SDS011;4274;52.012;8.448;2023-07-22T02:34:24;68.77;;;13.57;;
8474;SDS011;4274;52.012;8.448;2023-07-22T02:36:50;69.33;;;14.37;;
8474;SDS011;4274;52.012;8.448;2023-07-22T02:39:15;70.73;;;13.10;;
8474;SDS011;4274;52.012;8.448;2023-07-22T02:41:41;60.90;;;12.80;;
8474;SDS011;4274;52.012;8.448;2023-07-22T02:44:07;61.93;;;12.40;;
8474;SDS011;4274;52.012;8.448;2023-07-22T02:46:33;59.03;;;12.30;;
8474;SDS011;4274;52.012;8.448;2023-07-22T02:48:58;65.20;;;12.70;;
8474;SDS011;4274;52.012;8.448;2023-07-22T02:51:24;60.83;;;13.07;;
8474;SDS011;4274;52.012;8.448;2023-07-22T02:53:49;62.37;;;13.00;;
8474;SDS011;4274;52.012;8.448;2023-07-22T02:56:15;62.43;;;12.77;;
8474;SDS011;4274;52.012;8.448;2023-07-22T02:58:41;61.17;;;12.10;;
8474;SDS011;4274;52.012;8.448;2023-07-22T03:01:09;60.00;;;12.63;;
8474;SDS011;4274;52.012;8.448;2023-07-22T03:03:35;61.57;;;13.27;;
8474;SDS011;4274;52.012;8.448;2023-07-22T03:06:01;58.17;;;12.50;;
8474;SDS011;4274;52.012;8.448;2023-07-22T03:08:28;64.70;;;13.57;;
8474;SDS011;4274;52.012;8.448;2023-07-22T03:10:54;63.93;;;13.03;;
8474;SDS011;4274;52.012;8.448;2023-07-22T03:13:20;65.67;;;13.40;;
8474;SDS011;4274;52.012;8.448;2023-07-22T03:15:46;60.67;;;12.40;;
8474;SDS011;4274;52.012;8.448;2023-07-22T03:18:11;58.00;;;11.53;;
8474;SDS011;4274;52.012;8.448;2023-07-22T03:20:37;64.93;;;12.17;;
8474;SDS011;4274;52.012;8.448;2023-07-22T03:23:04;61.47;;;11.83;;
8474;SDS011;4274;52.012;8.448;2023-07-22T03:25:30;60.30;;;12.17;;
8474;SDS011;4274;52.012;8.448;2023-07-22T03:27:55;60.40;;;12.53;;
8474;SDS011;4274;52.012;8.448;2023-07-22T03:30:21;60.17;;;11.73;;
8474;SDS011;4274;52.012;8.448;2023-07-22T03:32:48;63.03;;;12.40;;
8474;SDS011;4274;52.012;8.448;2023-07-22T03:35:15;58.07;;;11.47;;
8474;SDS011;4274;52.012;8.448;2023-07-22T03:37:44;61.57;;;12.00;;
8474;SDS011;4274;52.012;8.448;2023-07-22T03:40:10;65.43;;;13.67;;
8474;SDS011;4274;52.012;8.448;2023-07-22T03:42:39;64.20;;;12.23;;
8474;SDS011;4274;52.012;8.448;2023-07-22T03:45:05;62.40;;;12.20;;
8474;SDS011;4274;52.012;8.448;2023-07-22T03:47:31;59.57;;;11.83;;
8474;SDS011;4274;52.012;8.448;2023-07-22T03:49:57;63.97;;;13.03;;
8474;SDS011;4274;52.012;8.448;2023-07-22T03:52:23;64.23;;;13.70;;
8474;SDS011;4274;52.012;8.448;2023-07-22T03:54:48;61.73;;;13.13;;
8474;SDS011;4274;52.012;8.448;2023-07-22T03:57:14;70.40;;;12.80;;
8474;SDS011;4274;52.012;8.448;2023-07-22T03:59:39;62.10;;;12.77;;
8474;SDS011;4274;52.012;8.448;2023-07-22T04:02:05;73.13;;;14.63;;
8474;SDS011;4274;52.012;8.448;2023-07-22T04:04:31;70.67;;;14.23;;
8474;SDS011;4274;52.012;8.448;2023-07-22T04:06:56;65.60;;;13.53;;
8474;SDS011;4274;52.012;8.448;2023-07-22T04:09:22;64.93;;;13.80;;
8474;SDS011;4274;52.012;8.448;2023-07-22T04:11:47;62.90;;;13.23;;
8474;SDS011;4274;52.012;8.448;2023-07-22T04:14:13;63.83;;;14.07;;
8474;SDS011;4274;52.012;8.448;2023-07-22T04:16:39;67.43;;;15.33;;
8474;SDS011;4274;52.012;8.448;2023-07-22T04:19:05;63.73;;;13.67;;
8474;SDS011;4274;52.012;8.448;2023-07-22T04:21:31;70.57;;;14.87;;
8474;SDS011;4274;52.012;8.448;2023-07-22T04:23:56;62.47;;;14.30;;
8474;SDS011;4274;52.012;8.448;2023-07-22T04:26:22;65.20;;;15.13;;
8474;SDS011;4274;52.012;8.448;2023-07-22T04:28:47;69.47;;;14.33;;
8474;SDS011;4274;52.012;8.448;2023-07-22T04:31:13;69.80;;;16.53;;
8474;SDS011;4274;52.012;8.448;2023-07-22T04:33:38;70.00;;;15.40;;
8474;SDS011;4274;52.012;8.448;2023-07-22T04:36:06;67.40;;;15.17;;
8474;SDS011;4274;52.012;8.448;2023-07-22T04:38:32;66.07;;;16.63;;
8474;SDS011;4274;52.012;8.448;2023-07-22T04:40:57;72.27;;;14.10;;
8474;SDS011;4274;52.012;8.448;2023-07-22T04:43:24;72.50;;;15.80;;
8474;SDS011;4274;52.012;8.448;2023-07-22T04:45:49;68.60;;;14.47;;
8474;SDS011;4274;52.012;8.448;2023-07-22T04:48:15;64.23;;;14.60;;
8474;SDS011;4274;52.012;8.448;2023-07-22T04:50:42;68.63;;;15.90;;
8474;SDS011;4274;52.012;8.448;2023-07-22T04:53:10;65.93;;;14.80;;
8474;SDS011;4274;52.012;8.448;2023-07-22T04:55:38;71.37;;;14.37;;
8474;SDS011;4274;52.012;8.448;2023-07-22T04:58:03;65.13;;;15.10;;
8474;SDS011;4274;52.012;8.448;2023-07-22T05:00:29;75.33;;;15.07;;
8474;SDS011;4274;52.012;8.448;2023-07-22T05:02:55;72.47;;;16.80;;
8474;SDS011;4274;52.012;8.448;2023-07-22T05:05:21;73.23;;;15.80;;
8474;SDS011;4274;52.012;8.448;2023-07-22T05:07:47;67.40;;;15.57;;
8474;SDS011;4274;52.012;8.448;2023-07-22T05:10:14;66.50;;;14.87;;
8474;SDS011;4274;52.012;8.448;2023-07-22T05:12:40;70.53;;;16.73;;
8474;SDS011;4274;52.012;8.448;2023-07-22T05:15:07;70.03;;;15.70;;
8474;SDS011;4274;52.012;8.448;2023-07-22T05:17:34;71.40;;;16.10;;
8474;SDS011;4274;52.012;8.448;2023-07-22T05:20:00;75.33;;;17.13;;
8474;SDS011;4274;52.012;8.448;2023-07-22T05:22:25;74.80;;;17.13;;
8474;SDS011;4274;52.012;8.448;2023-07-22T05:24:51;69.37;;;17.30;;
8474;SDS011;4274;52.012;8.448;2023-07-22T05:27:17;70.40;;;17.07;;
8474;SDS011;4274;52.012;8.448;2023-07-22T05:29:43;64.00;;;15.40;;
8474;SDS011;4274;52.012;8.448;2023-07-22T05:32:08;66.13;;;15.60;;
8474;SDS011;4274;52.012;8.448;2023-07-22T05:34:35;69.33;;;14.77;;
8474;SDS011;4274;52.012;8.448;2023-07-22T05:37:00;69.40;;;13.97;;
8474;SDS011;4274;52.012;8.448;2023-07-22T05:39:26;66.33;;;14.53;;
8474;SDS011;4274;52.012;8.448;2023-07-22T05:41:51;69.03;;;14.17;;
8474;SDS011;4274;52.012;8.448;2023-07-22T05:44:17;67.40;;;14.50;;
8474;SDS011;4274;52.012;8.448;2023-07-22T05:46:43;62.20;;;13.00;;
8474;SDS011;4274;52.012;8.448;2023-07-22T05:49:08;67.57;;;12.97;;
8474;SDS011;4274;52.012;8.448;2023-07-22T05:51:34;60.40;;;14.20;;
8474;SDS011;4274;52.012;8.448;2023-07-22T05:54:00;71.33;;;14.23;;
8474;SDS011;4274;52.012;8.448;2023-07-22T05:56:25;65.60;;;14.40;;
8474;SDS011;4274;52.012;8.448;2023-07-22T05:58:51;63.17;;;13.83;;
8474;SDS011;4274;52.012;8.448;2023-07-22T06:01:16;65.73;;;14.03;;
8474;SDS011;4274;52.012;8.448;2023-07-22T06:03:42;64.67;;;13.03;;
8474;SDS011;4274;52.012;8.448;2023-07-22T06:06:08;68.97;;;13.87;;
8474;SDS011;4274;52.012;8.448;2023-07-22T06:08:34;68.90;;;14.20;;
8474;SDS011;4274;52.012;8.448;2023-07-22T06:11:00;66.87;;;13.40;;
8474;SDS011;4274;52.012;8.448;2023-07-22T06:13:26;64.13;;;13.00;;
8474;SDS011;4274;52.012;8.448;2023-07-22T06:15:51;63.43;;;13.47;;
8474;SDS011;4274;52.012;8.448;2023-07-22T06:18:17;61.50;;;13.40;;
8474;SDS011;4274;52.012;8.448;2023-07-22T06:20:43;62.10;;;13.60;;
8474;SDS011;4274;52.012;8.448;2023-07-22T06:23:09;63.27;;;11.87;;
8474;SDS011;4274;52.012;8.448;2023-07-22T06:25:35;67.43;;;13.20;;
8474;SDS011;4274;52.012;8.448;2023-07-22T06:28:00;65.80;;;12.20;;
8474;SDS011;4274;52.012;8.448;2023-07-22T06:30:26;61.27;;;13.93;;
8474;SDS011;4274;52.012;8.448;2023-07-22T06:32:52;64.63;;;12.97;;
8474;SDS011;4274;52.012;8.448;2023-07-22T06:35:18;58.47;;;11.17;;
8474;SDS011;4274;52.012;8.448;2023-07-22T06:37:43;59.03;;;11.83;;
8474;SDS011;4274;52.012;8.448;2023-07-22T06:40:09;63.77;;;11.57;;
8474;SDS011;4274;52.012;8.448;2023-07-22T06:42:35;64.33;;;13.13;;
8474;SDS011;4274;52.012;8.448;2023-07-22T06:45:01;63.20;;;12.00;;
8474;SDS011;4274;52.012;8.448;2023-07-22T06:47:26;59.67;;;11.27;;
8474;SDS011;4274;52.012;8.448;2023-07-22T06:49:52;63.67;;;12.87;;
8474;SDS011;4274;52.012;8.448;2023-07-22T06:52:18;72.70;;;12.40;;
8474;SDS011;4274;52.012;8.448;2023-07-22T06:54:44;65.00;;;14.23;;
8474;SDS011;4274;52.012;8.448;2023-07-22T06:57:10;57.77;;;10.93;;
8474;SDS011;4274;52.012;8.448;2023-07-22T06:59:36;59.63;;;10.90;;
8474;SDS011;4274;52.012;8.448;2023-07-22T07:02:02;56.40;;;10.20;;
8474;SDS011;4274;52.012;8.448;2023-07-22T07:04:30;64.90;;;11.70;;
8474;SDS011;4274;52.012;8.448;2023-07-22T07:06:55;59.03;;;11.80;;
8474;SDS011;4274;52.012;8.448;2023-07-22T07:09:21;57.77;;;11.10;;
8474;SDS011;4274;52.012;8.448;2023-07-22T07:11:47;62.30;;;11.60;;
8474;SDS011;4274;52.012;8.448;2023-07-22T07:14:12;61.80;;;11.23;;
8474;SDS011;4274;52.012;8.448;2023-07-22T07:16:38;65.90;;;11.20;;
8474;SDS011;4274;52.012;8.448;2023-07-22T07:19:04;56.60;;;11.40;;
8474;SDS011;4274;52.012;8.448;2023-07-22T07:21:29;58.40;;;10.97;;
8474;SDS011;4274;52.012;8.448;2023-07-22T07:23:55;56.70;;;10.73;;
8474;SDS011;4274;52.012;8.448;2023-07-22T07:26:21;57.90;;;10.97;;
8474;SDS011;4274;52.012;8.448;2023-07-22T07:28:47;64.90;;;11.93;;
8474;SDS011;4274;52.012;8.448;2023-07-22T07:31:14;59.20;;;10.83;;
8474;SDS011;4274;52.012;8.448;2023-07-22T07:33:39;60.63;;;10.13;;
8474;SDS011;4274;52.012;8.448;2023-07-22T07:36:05;64.53;;;11.37;;
8474;SDS011;4274;52.012;8.448;2023-07-22T07:38:30;59.20;;;10.40;;
8474;SDS011;4274;52.012;8.448;2023-07-22T07:40:57;57.30;;;9.87;;
8474;SDS011;4274;52.012;8.448;2023-07-22T07:43:30;60.57;;;9.87;;
8474;SDS011;4274;52.012;8.448;2023-07-22T07:46:15;57.50;;;10.33;;
8474;SDS011;4274;52.012;8.448;2023-07-22T07:48:42;63.00;;;10.90;;
8474;SDS011;4274;52.012;8.448;2023-07-22T07:51:09;59.67;;;11.23;;
8474;SDS011;4274;52.012;8.448;2023-07-22T07:53:35;58.67;;;10.47;;
8474;SDS011;4274;52.012;8.448;2023-07-22T07:56:01;60.33;;;11.77;;
8474;SDS011;4274;52.012;8.448;2023-07-22T07:58:26;65.47;;;12.50;;
8474;SDS011;4274;52.012;8.448;2023-07-22T08:00:52;56.47;;;10.33;;
8474;SDS011;4274;52.012;8.448;2023-07-22T08:03:17;61.90;;;11.57;;
8474;SDS011;4274;52.012;8.448;2023-07-22T08:05:43;68.00;;;11.77;;
8474;SDS011;4274;52.012;8.448;2023-07-22T08:08:08;61.97;;;10.77;;
8474;SDS011;4274;52.012;8.448;2023-07-22T08:10:35;58.73;;;11.60;;
8474;SDS011;4274;52.012;8.448;2023-07-22T08:13:00;56.27;;;10.93;;
8474;SDS011;4274;52.012;8.448;2023-07-22T08:15:27;61.80;;;11.37;;
8474;SDS011;4274;52.012;8.448;2023-07-22T08:17:53;62.37;;;12.00;;
8474;SDS011;4274;52.012;8.448;2023-07-22T08:20:18;57.37;;;11.30;;
8474;SDS011;4274;52.012;8.448;2023-07-22T08:22:44;71.10;;;11.47;;
8474;SDS011;4274;52.012;8.448;2023-07-22T08:25:09;61.73;;;11.33;;
8474;SDS011;4274;52.012;8.448;2023-07-22T08:27:35;57.40;;;11.10;;
8474;SDS011;4274;52.012;8.448;2023-07-22T08:30:00;62.43;;;11.47;;
8474;SDS011;4274;52.012;8.448;2023-07-22T08:32:26;61.83;;;11.67;;
8474;SDS011;4274;52.012;8.448;2023-07-22T08:34:51;57.20;;;10.97;;
8474;SDS011;4274;52.012;8.448;2023-07-22T08:37:17;57.80;;;11.00;;
8474;SDS011;4274;52.012;8.448;2023-07-22T08:39:43;64.20;;;10.67;;
8474;SDS011;4274;52.012;8.448;2023-07-22T08:42:08;62.53;;;10.50;;
8474;SDS011;4274;52.012;8.448;2023-07-22T08:44:35;63.73;;;12.23;;
8474;SDS011;4274;52.012;8.448;2023-07-22T08:47:03;62.93;;;11.50;;
8474;SDS011;4274;52.012;8.448;2023-07-22T08:49:33;60.03;;;11.10;;
8474;SDS011;4274;52.012;8.448;2023-07-22T08:51:59;60.93;;;11.10;;
8474;SDS011;4274;52.012;8.448;2023-07-22T08:54:25;66.03;;;11.80;;
8474;SDS011;4274;52.012;8.448;2023-07-22T08:56:52;59.50;;;11.47;;
8474;SDS011;4274;52.012;8.448;2023-07-22T08:59:19;73.17;;;11.27;;
8474;SDS011;4274;52.012;8.448;2023-07-22T09:01:45;58.47;;;11.20;;
8474;SDS011;4274;52.012;8.448;2023-07-22T09:04:12;67.13;;;11.07;;
8474;SDS011;4274;52.012;8.448;2023-07-22T09:06:38;57.37;;;10.33;;
8474;SDS011;4274;52.012;8.448;2023-07-22T09:09:06;61.63;;;10.30;;
8474;SDS011;4274;52.012;8.448;2023-07-22T09:11:33;57.07;;;10.27;;
8474;SDS011;4274;52.012;8.448;2023-07-22T09:14:00;58.00;;;10.30;;
8474;SDS011;4274;52.012;8.448;2023-07-22T09:16:28;62.60;;;11.57;;
8474;SDS011;4274;52.012;8.448;2023-07-22T09:18:55;63.93;;;11.40;;
8474;SDS011;4274;52.012;8.448;2023-07-22T09:21:22;59.57;;;11.07;;
8474;SDS011;4274;52.012;8.448;2023-07-22T09:23:48;59.23;;;10.70;;
8474;SDS011;4274;52.012;8.448;2023-07-22T09:26:14;62.57;;;10.60;;
8474;SDS011;4274;52.012;8.448;2023-07-22T09:31:17;64.40;;;11.43;;
8474;SDS011;4274;52.012;8.448;2023-07-22T09:33:44;57.00;;;10.57;;
8474;SDS011;4274;52.012;8.448;2023-07-22T09:36:10;60.17;;;11.50;;
8474;SDS011;4274;52.012;8.448;2023-07-22T09:38:36;58.13;;;9.20;;
8474;SDS011;4274;52.012;8.448;2023-07-22T09:41:02;60.37;;;10.40;;
8474;SDS011;4274;52.012;8.448;2023-07-22T09:43:29;61.10;;;10.17;;
8474;SDS011;4274;52.012;8.448;2023-07-22T09:45:55;56.90;;;10.03;;
8474;SDS011;4274;52.012;8.448;2023-07-22T09:48:21;55.90;;;8.60;;
8474;SDS011;4274;52.012;8.448;2023-07-22T09:50:55;56.27;;;9.40;;
8474;SDS011;4274;52.012;8.448;2023-07-22T09:53:22;57.80;;;8.77;;
8474;SDS011;4274;52.012;8.448;2023-07-22T09:55:47;55.53;;;8.60;;
8474;SDS011;4274;52.012;8.448;2023-07-22T09:58:13;53.97;;;9.07;;
8474;SDS011;4274;52.012;8.448;2023-07-22T10:00:39;58.60;;;8.67;;
8474;SDS011;4274;52.012;8.448;2023-07-22T10:03:12;51.30;;;7.90;;
8474;SDS011;4274;52.012;8.448;2023-07-22T10:05:40;53.87;;;7.70;;
8474;SDS011;4274;52.012;8.448;2023-07-22T10:08:08;55.37;;;7.90;;
8474;SDS011;4274;52.012;8.448;2023-07-22T10:10:38;52.60;;;8.10;;
8474;SDS011;4274;52.012;8.448;2023-07-22T10:13:04;53.90;;;8.20;;
8474;SDS011;4274;52.012;8.448;2023-07-22T10:15:31;55.37;;;7.60;;
8474;SDS011;4274;52.012;8.448;2023-07-22T10:18:01;55.40;;;8.10;;
8474;SDS011;4274;52.012;8.448;2023-07-22T10:20:28;52.43;;;7.50;;
8474;SDS011;4274;52.012;8.448;2023-07-22T10:22:55;52.40;;;7.47;;
8474;SDS011;4274;52.012;8.448;2023-07-22T10:25:21;51.97;;;7.97;;
8474;SDS011;4274;52.012;8.448;2023-07-22T10:27:48;55.43;;;7.73;;
8474;SDS011;4274;52.012;8.448;2023-07-22T10:30:15;60.80;;;7.70;;
8474;SDS011;4274;52.012;8.448;2023-07-22T10:32:46;54.27;;;9.03;;
8474;SDS011;4274;52.012;8.448;2023-07-22T10:35:34;56.00;;;7.97;;
8474;SDS011;4274;52.012;8.448;2023-07-22T10:38:10;51.47;;;6.63;;
8474;SDS011;4274;52.012;8.448;2023-07-22T10:43:15;52.70;;;6.27;;
8474;SDS011;4274;52.012;8.448;2023-07-22T10:45:43;53.87;;;7.47;;
8474;SDS011;4274;52.012;8.448;2023-07-22T10:48:14;55.27;;;7.67;;
8474;SDS011;4274;52.012;8.448;2023-07-22T10:50:40;52.20;;;7.43;;
8474;SDS011;4274;52.012;8.448;2023-07-22T10:53:10;51.10;;;6.90;;
8474;SDS011;4274;52.012;8.448;2023-07-22T11:04:32;58.97;;;7.37;;
8474;SDS011;4274;52.012;8.448;2023-07-22T11:14:51;52.30;;;7.30;;
8474;SDS011;4274;52.012;8.448;2023-07-22T11:17:18;52.87;;;6.80;;
8474;SDS011;4274;52.012;8.448;2023-07-22T11:19:56;50.40;;;6.00;;
8474;SDS011;4274;52.012;8.448;2023-07-22T11:22:22;50.17;;;6.43;;
8474;SDS011;4274;52.012;8.448;2023-07-22T11:24:48;51.27;;;6.50;;
8474;SDS011;4274;52.012;8.448;2023-07-22T11:27:14;53.00;;;6.47;;
8474;SDS011;4274;52.012;8.448;2023-07-22T11:29:40;53.07;;;7.10;;
8474;SDS011;4274;52.012;8.448;2023-07-22T11:32:06;56.37;;;7.40;;
8474;SDS011;4274;52.012;8.448;2023-07-22T11:34:32;50.97;;;6.80;;
8474;SDS011;4274;52.012;8.448;2023-07-22T11:36:58;51.13;;;6.90;;
8474;SDS011;4274;52.012;8.448;2023-07-22T11:39:25;55.03;;;6.67;;
8474;SDS011;4274;52.012;8.448;2023-07-22T11:41:52;50.93;;;5.83;;
8474;SDS011;4274;52.012;8.448;2023-07-22T11:44:19;51.23;;;6.40;;
8474;SDS011;4274;52.012;8.448;2023-07-22T11:49:24;54.30;;;7.27;;
8474;SDS011;4274;52.012;8.448;2023-07-22T11:51:55;55.70;;;5.87;;
8474;SDS011;4274;52.012;8.448;2023-07-22T11:54:27;50.97;;;6.90;;
8474;SDS011;4274;52.012;8.448;2023-07-22T11:56:54;52.30;;;7.13;;
8474;SDS011;4274;52.012;8.448;2023-07-22T11:59:33;52.67;;;6.07;;
8474;SDS011;4274;52.012;8.448;2023-07-22T12:02:03;53.83;;;5.97;;
8474;SDS011;4274;52.012;8.448;2023-07-22T12:04:30;52.67;;;6.10;;
8474;SDS011;4274;52.012;8.448;2023-07-22T12:06:57;54.83;;;6.50;;
8474;SDS011;4274;52.012;8.448;2023-07-22T12:09:23;54.50;;;6.90;;
8474;SDS011;4274;52.012;8.448;2023-07-22T12:11:54;53.33;;;7.20;;
8474;SDS011;4274;52.012;8.448;2023-07-22T12:14:22;50.40;;;5.90;;
8474;SDS011;4274;52.012;8.448;2023-07-22T12:16:47;57.53;;;6.60;;
8474;SDS011;4274;52.012;8.448;2023-07-22T12:19:20;49.47;;;5.60;;
8474;SDS011;4274;52.012;8.448;2023-07-22T12:21:46;48.10;;;5.20;;
8474;SDS011;4274;52.012;8.448;2023-07-22T12:24:13;52.60;;;5.57;;
8474;SDS011;4274;52.012;8.448;2023-07-22T12:26:39;54.53;;;6.20;;
8474;SDS011;4274;52.012;8.448;2023-07-22T12:29:04;49.17;;;5.30;;
8474;SDS011;4274;52.012;8.448;2023-07-22T12:31:30;48.93;;;5.60;;
8474;SDS011;4274;52.012;8.448;2023-07-22T12:33:55;50.83;;;5.23;;
8474;SDS011;4274;52.012;8.448;2023-07-22T12:36:22;51.53;;;5.03;;
8474;SDS011;4274;52.012;8.448;2023-07-22T12:38:47;51.00;;;5.43;;
8474;SDS011;4274;52.012;8.448;2023-07-22T12:41:13;49.20;;;4.77;;
8474;SDS011;4274;52.012;8.448;2023-07-22T12:43:39;49.67;;;5.00;;
8474;SDS011;4274;52.012;8.448;2023-07-22T12:46:04;51.83;;;5.40;;
8474;SDS011;4274;52.012;8.448;2023-07-22T12:48:30;49.90;;;5.47;;
8474;SDS011;4274;52.012;8.448;2023-07-22T12:50:56;49.80;;;4.60;;
8474;SDS011;4274;52.012;8.448;2023-07-22T12:53:21;54.23;;;4.73;;
8474;SDS011;4274;52.012;8.448;2023-07-22T12:55:47;49.23;;;4.97;;
8474;SDS011;4274;52.012;8.448;2023-07-22T12:58:13;49.50;;;5.10;;
8474;SDS011;4274;52.012;8.448;2023-07-22T13:00:39;55.50;;;6.10;;
8474;SDS011;4274;52.012;8.448;2023-07-22T13:03:04;48.83;;;4.90;;
8474;SDS011;4274;52.012;8.448;2023-07-22T13:05:30;49.27;;;5.40;;
8474;SDS011;4274;52.012;8.448;2023-07-22T13:07:55;51.20;;;5.27;;
8474;SDS011;4274;52.012;8.448;2023-07-22T13:10:22;48.97;;;5.27;;
8474;SDS011;4274;52.012;8.448;2023-07-22T13:12:48;50.27;;;5.30;;
8474;SDS011;4274;52.012;8.448;2023-07-22T13:15:13;49.20;;;4.97;;
8474;SDS011;4274;52.012;8.448;2023-07-22T13:17:39;53.43;;;6.07;;
8474;SDS011;4274;52.012;8.448;2023-07-22T13:20:05;52.37;;;5.07;;
8474;SDS011;4274;52.012;8.448;2023-07-22T13:22:32;50.93;;;5.53;;
8474;SDS011;4274;52.012;8.448;2023-07-22T13:24:58;50.83;;;4.80;;
8474;SDS011;4274;52.012;8.448;2023-07-22T13:27:23;46.77;;;4.07;;
8474;SDS011;4274;52.012;8.448;2023-07-22T13:29:49;49.63;;;4.50;;
8474;SDS011;4274;52.012;8.448;2023-07-22T13:32:14;48.50;;;4.60;;
8474;SDS011;4274;52.012;8.448;2023-07-22T13:34:40;47.53;;;4.40;;
8474;SDS011;4274;52.012;8.448;2023-07-22T13:37:05;47.87;;;4.67;;
8474;SDS011;4274;52.012;8.448;2023-07-22T13:39:31;50.80;;;5.10;;
8474;SDS011;4274;52.012;8.448;2023-07-22T13:41:57;47.37;;;4.30;;
8474;SDS011;4274;52.012;8.448;2023-07-22T13:44:22;48.30;;;4.50;;
8474;SDS011;4274;52.012;8.448;2023-07-22T13:46:48;49.87;;;4.63;;
8474;SDS011;4274;52.012;8.448;2023-07-22T13:49:13;51.50;;;4.60;;
8474;SDS011;4274;52.012;8.448;2023-07-22T13:51:40;49.90;;;4.60;;
8474;SDS011;4274;52.012;8.448;2023-07-22T13:54:06;48.87;;;4.67;;
8474;SDS011;4274;52.012;8.448;2023-07-22T13:56:31;49.00;;;4.70;;
8474;SDS011;4274;52.012;8.448;2023-07-22T13:58:57;50.37;;;4.47;;
8474;SDS011;4274;52.012;8.448;2023-07-22T14:01:25;49.43;;;5.00;;
8474;SDS011;4274;52.012;8.448;2023-07-22T14:03:51;48.47;;;4.83;;
8474;SDS011;4274;52.012;8.448;2023-07-22T14:06:17;47.87;;;4.50;;
8474;SDS011;4274;52.012;8.448;2023-07-22T14:08:42;47.80;;;4.37;;
8474;SDS011;4274;52.012;8.448;2023-07-22T14:11:08;50.73;;;5.37;;
8474;SDS011;4274;52.012;8.448;2023-07-22T14:13:33;47.80;;;4.70;;
8474;SDS011;4274;52.012;8.448;2023-07-22T14:15:59;49.50;;;4.80;;
8474;SDS011;4274;52.012;8.448;2023-07-22T14:18:25;51.07;;;4.13;;
8474;SDS011;4274;52.012;8.448;2023-07-22T14:20:51;48.13;;;4.50;;
8474;SDS011;4274;52.012;8.448;2023-07-22T14:23:16;47.13;;;4.03;;
8474;SDS011;4274;52.012;8.448;2023-07-22T14:25:42;49.80;;;3.97;;
8474;SDS011;4274;52.012;8.448;2023-07-22T14:28:07;48.20;;;4.47;;
8474;SDS011;4274;52.012;8.448;2023-07-22T14:30:33;51.20;;;4.77;;
8474;SDS011;4274;52.012;8.448;2023-07-22T14:32:58;47.57;;;3.97;;
8474;SDS011;4274;52.012;8.448;2023-07-22T14:35:24;49.20;;;4.07;;
8474;SDS011;4274;52.012;8.448;2023-07-22T14:37:50;48.00;;;4.53;;
8474;SDS011;4274;52.012;8.448;2023-07-22T14:40:16;47.60;;;3.70;;
8474;SDS011;4274;52.012;8.448;2023-07-22T14:42:41;47.00;;;3.80;;
8474;SDS011;4274;52.012;8.448;2023-07-22T14:45:07;50.77;;;3.63;;
8474;SDS011;4274;52.012;8.448;2023-07-22T14:47:33;48.87;;;4.27;;
8474;SDS011;4274;52.012;8.448;2023-07-22T14:50:00;48.53;;;3.40;;
8474;SDS011;4274;52.012;8.448;2023-07-22T14:52:26;47.10;;;3.80;;
8474;SDS011;4274;52.012;8.448;2023-07-22T14:54:51;46.80;;;3.23;;
8474;SDS011;4274;52.012;8.448;2023-07-22T14:57:17;57.33;;;3.77;;
8474;SDS011;4274;52.012;8.448;2023-07-22T14:59:42;54.67;;;3.63;;
8474;SDS011;4274;52.012;8.448;2023-07-22T15:02:08;52.40;;;3.63;;
8474;SDS011;4274;52.012;8.448;2023-07-22T15:04:33;47.83;;;3.80;;
8474;SDS011;4274;52.012;8.448;2023-07-22T15:06:59;47.97;;;3.60;;
8474;SDS011;4274;52.012;8.448;2023-07-22T15:09:25;46.60;;;3.57;;
8474;SDS011;4274;52.012;8.448;2023-07-22T15:11:51;49.17;;;3.63;;